Time;durP1;ratioP1;P1;durP2;ratioP2;P2;SDS_P1;SDS_P2;PMS_P1;PMS_P2;Temp;Humidity;BMP_temperature;BMP_pressure;BME280_temperature;BME280_humidity;BME280_pressure;Samples;Min_cycle;Max_cycle;Signal;HPM_P1;HPM_P2
2022/01/21 00:00:18;;;;;;;7.97;5.50;;;;;;;3.33;61.04;62342.25;6077038;23;20196;-77
2022/01/21 00:02:45;;;;;;;12.02;6.50;;;;;;;3.35;61.00;62343.78;6076742;23;20227;-76
2022/01/21 00:05:13;;;;;;;10.80;7.60;;;;;;;3.43;60.81;62349.50;6077431;23;20218;-76
2022/01/21 00:07:41;;;;;;;6.40;5.30;;;;;;;3.46;60.54;62355.63;6078879;23;20173;-77
2022/01/21 00:10:09;;;;;;;13.30;7.47;;;;;;;3.44;60.39;62353.56;6077279;23;20429;-76
2022/01/21 00:12:43;;;;;;;6.70;5.22;;;;;;;3.49;60.74;62355.66;6078736;23;20196;-77
2022/01/21 00:15:11;;;;;;;10.25;4.75;;;;;;;3.49;60.80;62361.22;6077919;23;20252;-75
2022/01/21 00:17:38;;;;;;;8.55;5.20;;;;;;;3.56;60.72;62367.91;6077556;23;20541;-76
2022/01/21 00:31:11;;;;;;;6.07;4.40;;;;;;;3.31;63.47;62337.66;6080253;23;20195;-77
2022/01/21 00:33:38;;;;;;;5.38;4.82;;;;;;;3.25;65.91;62333.50;6079298;23;20223;-76
2022/01/21 00:36:06;;;;;;;10.32;4.70;;;;;;;3.35;65.77;62341.78;6080112;23;20192;-77
2022/01/21 00:38:34;;;;;;;5.25;4.63;;;;;;;3.39;64.71;62350.41;6079263;23;20439;-76
2022/01/21 00:41:04;;;;;;;6.32;4.80;;;;;;;3.47;64.41;62359.16;6079298;23;20432;-76
2022/01/21 00:43:32;;;;;;;10.90;5.13;;;;;;;3.43;64.75;62350.00;6079367;23;20181;-76
2022/01/21 00:46:00;;;;;;;6.85;4.63;;;;;;;3.52;64.58;62359.25;6079070;23;20492;-76
2022/01/21 00:48:28;;;;;;;9.48;4.93;;;;;;;3.53;64.09;62362.28;6079309;23;20241;-77
2022/01/21 00:50:55;;;;;;;20.02;6.90;;;;;;;3.55;63.83;62364.84;6079160;23;20228;-76
2022/01/21 00:53:21;;;;;;;14.90;5.88;;;;;;;3.66;63.16;62375.16;6078254;23;20204;-76
2022/01/21 00:55:49;;;;;;;7.22;4.25;;;;;;;3.64;63.51;62373.09;6080204;23;20237;-77
2022/01/21 00:58:16;;;;;;;6.03;4.30;;;;;;;3.69;63.88;62380.75;6079510;23;20169;-76
2022/01/21 01:00:43;;;;;;;9.20;5.20;;;;;;;3.63;64.43;62372.06;6079605;23;20439;-75
2022/01/21 01:03:12;;;;;;;9.93;5.35;;;;;;;3.60;64.67;62372.00;6079091;23;20173;-75
2022/01/21 01:05:39;;;;;;;11.32;5.00;;;;;;;3.62;64.34;62371.56;6079071;23;20200;-76
2022/01/21 01:08:07;;;;;;;6.80;5.28;;;;;;;3.68;62.95;62380.22;6080205;23;20169;-76
2022/01/21 01:10:47;;;;;;;8.27;5.25;;;;;;;3.71;62.62;62383.31;6079186;23;20272;-75
2022/01/21 01:21:36;;;;;;;8.25;5.05;;;;;;;3.60;62.93;62364.47;6080680;23;20412;-76
2022/01/21 01:27:35;;;;;;;8.20;5.25;;;;;;;3.46;63.83;62360.13;6079088;23;20177;-75
2022/01/21 01:29:37;;;;;;;5.93;5.10;;;;;;;3.56;77.43;62360.34;6080484;23;20545;-76
2022/01/21 01:32:06;;;;;;;11.18;5.85;;;;;;;3.56;83.19;62365.38;6082737;23;20204;-76
2022/01/21 01:34:32;;;;;;;7.97;5.68;;;;;;;3.45;86.41;62354.06;6080837;23;20412;-76
2022/01/21 01:37:07;;;;;;;6.78;4.57;;;;;;;3.22;94.08;62332.94;6084102;23;20176;-76
2022/01/21 01:39:39;;;;;;;4.50;3.85;;;;;;;2.86;100.00;62293.44;6091886;23;20196;-76
2022/01/21 01:42:35;;;;;;;9.10;4.32;;;;;;;2.93;100.00;62301.13;6092937;23;20173;-77
2022/01/21 01:50:36;;;;;;;5.82;4.30;;;;;;;2.48;100.00;62256.91;6078942;23;20260;-76
2022/01/21 01:53:06;;;;;;;7.45;4.10;;;;;;;2.55;100.00;62262.09;6082319;23;20244;-76
2022/01/21 01:55:33;;;;;;;7.88;4.78;;;;;;;2.61;100.00;62272.75;6088310;23;20250;-76
2022/01/21 01:58:00;;;;;;;9.50;4.80;;;;;;;2.56;100.00;62263.13;6082815;23;20173;-76
2022/01/21 02:00:28;;;;;;;7.13;4.97;;;;;;;2.64;100.00;62271.31;6078939;23;20221;-76
2022/01/21 02:02:55;;;;;;;9.20;5.10;;;;;;;2.69;100.00;62273.97;6080961;23;20390;-76
2022/01/21 02:05:22;;;;;;;6.97;5.40;;;;;;;2.64;100.00;62271.31;6079610;23;20199;-76
2022/01/21 02:07:50;;;;;;;8.07;6.22;;;;;;;2.68;100.00;62277.94;6082462;23;20173;-75
2022/01/21 02:10:17;;;;;;;7.65;6.13;;;;;;;2.71;100.00;62281.03;6081190;23;20256;-75
2022/01/21 02:12:44;;;;;;;9.20;6.53;;;;;;;2.71;100.00;62275.50;6080425;23;20205;-76
2022/01/21 02:15:12;;;;;;;8.07;6.28;;;;;;;2.74;100.00;62284.13;6078903;23;20189;-76
2022/01/21 02:23:10;;;;;;;7.75;5.70;;;;;;;2.72;100.00;62279.03;6047663;23;20187;-76
2022/01/21 02:25:36;;;;;;;8.75;6.78;;;;;;;2.75;100.00;62285.16;6077513;23;20538;-76
2022/01/21 02:28:03;;;;;;;14.25;8.43;;;;;;;2.64;100.00;62273.34;6079175;23;20168;-76
2022/01/21 02:30:32;;;;;;;14.10;8.05;;;;;;;2.59;100.00;62268.69;6077217;23;20200;-76
2022/01/21 02:33:01;;;;;;;14.50;8.32;;;;;;;2.68;100.00;62275.44;6078300;23;20212;-76
2022/01/21 02:35:28;;;;;;;12.57;7.72;;;;;;;2.67;100.00;62271.38;6078396;23;20252;-76
2022/01/21 02:37:55;;;;;;;13.95;8.27;;;;;;;2.66;100.00;62272.88;6078551;23;20176;-77
2022/01/21 02:40:23;;;;;;;14.90;9.02;;;;;;;2.68;100.00;62279.94;6078264;23;20196;-77
2022/01/21 02:42:50;;;;;;;14.23;8.70;;;;;;;2.71;100.00;62278.03;6078082;23;20271;-76
2022/01/21 02:45:18;;;;;;;17.25;8.45;;;;;;;2.65;100.00;62274.88;6078323;23;20204;-77
2022/01/21 02:47:46;;;;;;;14.75;8.20;;;;;;;2.62;100.00;62271.81;6079210;23;20169;-77
2022/01/21 02:50:16;;;;;;;13.85;7.65;;;;;;;2.55;100.00;62259.06;6078470;23;20197;-76
2022/01/21 02:52:55;;;;;;;11.40;8.25;;;;;;;2.53;100.00;62260.03;6077964;23;20205;-76
2022/01/21 02:55:23;;;;;;;12.23;7.47;;;;;;;2.37;100.00;62243.59;6076963;23;20232;-76
2022/01/21 02:57:50;;;;;;;9.50;6.80;;;;;;;2.01;100.00;62207.16;6078496;23;20179;-76
2022/01/21 03:00:17;;;;;;;9.38;6.60;;;;;;;1.71;100.00;62171.31;6077456;23;20200;-77
2022/01/21 03:02:45;;;;;;;9.25;6.93;;;;;;;1.47;100.00;62151.22;6078074;23;20179;-76
2022/01/21 03:05:15;;;;;;;10.63;8.25;;;;;;;1.27;100.00;62128.69;6077830;23;20203;-77
2022/01/21 03:07:43;;;;;;;9.85;5.72;;;;;;;1.06;100.00;62110.16;6077810;23;20208;-75
2022/01/21 03:10:10;;;;;;;3.03;2.65;;;;;;;0.84;100.00;62087.06;6078051;23;20184;-76
2022/01/21 03:12:39;;;;;;;3.63;3.20;;;;;;;0.65;100.00;62065.09;6077531;23;20180;-77
2022/01/21 03:15:07;;;;;;;6.10;2.65;;;;;;;0.55;100.00;62060.34;6077788;23;20192;-77
2022/01/21 03:17:34;;;;;;;3.35;3.05;;;;;;;0.57;100.00;62054.88;6078413;23;20173;-76
2022/01/21 03:20:01;;;;;;;2.97;2.78;;;;;;;0.51;100.00;62053.25;6077110;23;20217;-77
2022/01/21 03:22:27;;;;;;;3.53;2.70;;;;;;;0.42;100.00;62039.00;6077222;23;20429;-77
2022/01/21 03:24:54;;;;;;;1.30;1.30;;;;;;;0.32;100.00;62036.25;6077786;23;20204;-76
2022/01/21 03:27:21;;;;;;;1.63;1.50;;;;;;;0.49;100.00;62051.19;6076652;23;20180;-76
2022/01/21 03:29:49;;;;;;;1.60;1.13;;;;;;;0.46;100.00;62048.63;6077739;23;20224;-77
2022/01/21 03:32:16;;;;;;;1.35;1.35;;;;;;;0.49;100.00;62054.19;6077745;23;20173;-76
2022/01/21 03:34:43;;;;;;;0.90;0.90;;;;;;;0.52;100.00;62054.28;6078888;23;20260;-77
2022/01/21 03:37:10;;;;;;;0.65;0.65;;;;;;;0.45;100.00;62045.09;6077505;23;20410;-76
2022/01/21 03:39:37;;;;;;;0.90;0.90;;;;;;;0.57;100.00;62059.91;6078100;23;20196;-76
2022/01/21 03:42:04;;;;;;;0.60;0.60;;;;;;;0.67;100.00;62067.66;6077985;23;20169;-76
2022/01/21 03:44:31;;;;;;;0.73;0.73;;;;;;;0.58;100.00;62060.94;6077749;23;20202;-75
2022/01/21 03:46:59;;;;;;;1.20;1.20;;;;;;;0.59;100.00;62064.44;6076858;23;20185;-76
2022/01/21 03:49:28;;;;;;;1.05;1.05;;;;;;;0.61;100.00;62058.47;6077341;23;20188;-77
2022/01/21 03:51:54;;;;;;;0.40;0.40;;;;;;;0.62;100.00;62064.53;6077501;23;20216;-75
2022/01/21 03:54:21;;;;;;;0.90;0.90;;;;;;;0.53;100.00;62055.81;6075958;23;20256;-75
2022/01/21 03:56:48;;;;;;;0.60;0.60;;;;;;;0.57;100.00;62057.38;6077615;23;20173;-75
2022/01/21 03:59:15;;;;;;;0.57;0.57;;;;;;;0.50;100.00;62055.22;6076819;23;20203;-76
2022/01/21 04:01:42;;;;;;;0.50;0.50;;;;;;;0.57;100.00;62057.38;6078102;23;20185;-75
2022/01/21 04:04:10;;;;;;;0.65;0.65;;;;;;;0.57;100.00;62062.41;6077461;23;20248;-75
2022/01/21 04:06:37;;;;;;;0.90;0.90;;;;;;;0.59;100.00;62058.94;6077804;23;20377;-76
2022/01/21 04:09:04;;;;;;;1.08;1.08;;;;;;;0.57;100.00;62057.38;6078200;23;20172;-75
2022/01/21 04:11:31;;;;;;;1.08;1.08;;;;;;;0.65;100.00;62068.13;6076850;23;20228;-75
2022/01/21 04:13:58;;;;;;;0.80;0.80;;;;;;;0.66;100.00;62063.59;6078228;23;20247;-75
2022/01/21 04:16:24;;;;;;;1.63;1.17;;;;;;;0.71;100.00;62079.25;6077079;23;20172;-75
2022/01/21 04:18:51;;;;;;;0.70;0.70;;;;;;;0.62;100.00;62065.03;6077560;23;20185;-75
2022/01/21 04:21:21;;;;;;;1.02;1.02;;;;;;;0.79;100.00;62081.94;6076935;23;20216;-74
2022/01/21 04:23:47;;;;;;;1.13;1.10;;;;;;;0.72;100.00;62080.31;6077694;23;20370;-74
2022/01/21 04:26:14;;;;;;;0.90;0.90;;;;;;;0.53;100.00;62055.81;6076717;23;20240;-75
2022/01/21 04:28:41;;;;;;;1.42;1.42;;;;;;;0.44;100.00;62046.56;6077808;23;20176;-75
2022/01/21 04:31:08;;;;;;;0.88;0.88;;;;;;;0.47;100.00;62046.63;6077316;23;20249;-75
2022/01/21 04:33:35;;;;;;;0.73;0.73;;;;;;;0.53;100.00;62055.28;6076693;23;20256;-75
2022/01/21 04:36:02;;;;;;;0.90;0.90;;;;;;;0.31;100.00;62030.72;6077328;23;20200;-75
2022/01/21 04:38:31;;;;;;;0.73;0.73;;;;;;;0.47;100.00;62052.16;6077529;23;20173;-74
2022/01/21 04:41:04;;;;;;;1.08;1.00;;;;;;;0.43;100.00;62042.53;6076892;23;20192;-74
2022/01/21 04:48:59;;;;;;;0.70;0.70;;;;;;;0.44;100.00;62046.56;6077774;23;20476;-75
2022/01/21 04:51:28;;;;;;;0.77;0.77;;;;;;;0.50;100.00;62050.22;6077234;23;20219;-75
2022/01/21 04:53:57;;;;;;;1.10;1.10;;;;;;;0.48;100.00;62048.19;6076379;23;20208;-76
2022/01/21 04:56:24;;;;;;;1.85;1.02;;;;;;;0.44;100.00;62044.06;6077545;23;20231;-76
2022/01/21 04:58:53;;;;;;;0.90;0.90;;;;;;;0.45;100.00;62047.59;6078069;23;20221;-76
2022/01/21 05:01:20;;;;;;;1.13;1.13;;;;;;;0.26;100.00;62028.13;6076902;23;20197;-75
2022/01/21 05:03:47;;;;;;;1.33;1.23;;;;;;;0.36;100.00;62038.38;6077160;23;20189;-76
2022/01/21 05:06:14;;;;;;;0.85;0.80;;;;;;;0.23;100.00;62024.53;6079270;23;20403;-75
2022/01/21 05:08:46;;;;;;;1.38;1.33;;;;;;;0.39;100.00;62041.44;6080079;23;20181;-75
2022/01/21 05:11:16;;;;;;;0.80;0.80;;;;;;;0.37;100.00;62036.38;6079319;23;20459;-75
2022/01/21 05:13:51;;;;;;;1.23;1.13;;;;;;;0.46;100.00;62051.13;6079005;23;20240;-74
2022/01/21 05:16:30;;;;;;;1.00;0.95;;;;;;;0.32;100.00;62033.75;6079856;23;20164;-75
2022/01/21 05:18:58;;;;;;;1.05;1.05;;;;;;;0.16;100.00;62022.88;6079436;23;20164;-75
2022/01/21 05:21:25;;;;;;;0.50;0.50;;;;;;;0.23;100.00;62022.03;6079261;23;20177;-75
2022/01/21 05:23:52;;;;;;;0.82;0.82;;;;;;;0.26;100.00;62028.13;6079570;23;20181;-75
2022/01/21 05:26:20;;;;;;;1.13;1.02;;;;;;;0.11;100.00;62009.72;6078717;23;20232;-75
2022/01/21 05:28:48;;;;;;;1.02;1.02;;;;;;;0.07;100.00;62005.63;6077347;23;20164;-74
2022/01/21 05:31:15;;;;;;;1.63;1.52;;;;;;;0.12;100.00;62013.78;6079633;23;20224;-74
2022/01/21 05:33:42;;;;;;;1.05;1.05;;;;;;;0.23;100.00;62019.53;6079193;23;20440;-75
2022/01/21 05:36:09;;;;;;;1.20;1.20;;;;;;;-0.15;100.00;61986.63;6078969;23;20193;-75
2022/01/21 05:38:35;;;;;;;2.88;2.13;;;;;;;-0.08;100.00;61991.28;6079045;23;20215;-75
2022/01/21 05:41:02;;;;;;;1.45;1.45;;;;;;;-0.10;100.00;61989.25;6079833;23;20193;-75
2022/01/21 05:43:32;;;;;;;1.08;1.08;;;;;;;-0.13;100.00;61986.16;6080566;23;20181;-75
2022/01/21 05:48:46;;;;;;;0.85;0.85;;;;;;;-0.14;100.00;61987.13;6076829;23;20189;-76
2022/01/21 05:51:15;;;;;;;2.08;1.13;;;;;;;-0.04;100.00;61995.41;6085023;23;20236;-76
2022/01/21 05:53:42;;;;;;;0.93;0.93;;;;;;;0.12;100.00;62008.78;6083670;23;20200;-76
2022/01/21 05:56:09;;;;;;;0.73;0.73;;;;;;;-0.09;100.00;61992.75;6081206;23;20196;-75
2022/01/21 05:58:37;;;;;;;0.82;0.82;;;;;;;-0.05;100.00;61993.84;6080987;23;20201;-76
2022/01/21 06:01:05;;;;;;;0.70;0.60;;;;;;;-0.08;100.00;61991.28;6079730;23;20197;-75
2022/01/21 06:03:33;;;;;;;0.80;0.80;;;;;;;-0.31;100.00;61964.72;6082949;23;20181;-77
2022/01/21 06:06:00;;;;;;;1.08;0.95;;;;;;;-0.56;100.00;61944.09;6078304;23;20203;-77
2022/01/21 06:08:27;;;;;;;1.25;1.02;;;;;;;-0.49;100.00;61948.78;6079060;23;20224;-76
2022/01/21 06:10:54;;;;;;;0.75;0.75;;;;;;;-0.43;100.00;61952.94;6078060;23;20216;-77
2022/01/21 06:13:20;;;;;;;1.08;1.08;;;;;;;-0.49;100.00;61946.78;6078975;23;20177;-76
2022/01/21 06:15:49;;;;;;;0.52;0.52;;;;;;;-0.77;100.00;61923.13;6079120;23;20200;-77
2022/01/21 06:18:16;;;;;;;1.27;0.98;;;;;;;-0.80;100.00;61920.03;6077739;23;20181;-76
2022/01/21 06:20:44;;;;;;;1.13;1.10;;;;;;;-0.78;100.00;61921.56;6079304;23;20243;-78
2022/01/21 06:23:10;;;;;;;1.10;1.10;;;;;;;-0.93;100.00;61903.72;6082927;23;20212;-76
2022/01/21 06:25:37;;;;;;;1.08;1.08;;;;;;;-0.87;100.00;61910.38;6086026;23;20208;-76
2022/01/21 06:28:05;;;;;;;1.65;1.30;;;;;;;-0.95;100.00;61899.19;6088218;23;20183;-76
2022/01/21 06:30:32;;;;;;;1.02;1.02;;;;;;;-0.98;100.00;61904.09;6081463;23;20197;-76
2022/01/21 06:33:00;;;;;;;3.72;0.93;;;;;;;-1.12;100.00;61886.78;6079556;23;20173;-76
2022/01/21 06:35:27;;;;;;;0.50;0.50;;;;;;;-1.23;100.00;61876.53;6079346;23;20240;-76
2022/01/21 06:37:54;;;;;;;1.08;1.00;;;;;;;-1.32;100.00;61862.34;6085617;23;20173;-76
2022/01/21 06:40:21;;;;;;;3.40;1.02;;;;;;;-1.17;100.00;61882.66;6086870;23;20205;-76
2022/01/21 06:42:49;;;;;;;2.42;1.70;;;;;;;-1.14;100.00;61885.25;6087737;23;20408;-76
2022/01/21 06:45:24;;;;;;;1.77;1.42;;;;;;;-1.02;100.00;61895.03;6089702;23;20197;-76
2022/01/21 06:47:51;;;;;;;1.40;1.30;;;;;;;-0.93;100.00;61908.72;6088692;23;20180;-75
2022/01/21 06:50:19;;;;;;;1.80;1.70;;;;;;;-1.12;100.00;61884.78;6083611;23;20196;-76
2022/01/21 06:52:46;;;;;;;1.80;1.67;;;;;;;-0.99;100.00;61897.56;6085563;23;20181;-76
2022/01/21 06:55:13;;;;;;;1.90;1.80;;;;;;;-1.05;100.00;61894.44;6083743;23;20221;-76
2022/01/21 06:57:40;;;;;;;1.85;1.73;;;;;;;-0.99;100.00;61900.59;6081124;23;20508;-76
2022/01/21 07:00:10;;;;;;;2.25;2.05;;;;;;;-1.12;100.00;61886.78;6078670;23;20189;-76
2022/01/21 07:02:37;;;;;;;1.35;1.33;;;;;;;-1.22;100.00;61877.56;6078021;23;20398;-77
2022/01/21 07:05:06;;;;;;;2.65;2.45;;;;;;;-1.09;100.00;61887.84;6077804;23;20208;-76
2022/01/21 07:07:35;;;;;;;2.25;1.35;;;;;;;-1.10;100.00;61888.81;6078137;23;20173;-76
2022/01/21 07:10:04;;;;;;;4.78;3.28;;;;;;;-1.10;100.00;61889.31;6076695;23;20397;-76
2022/01/21 07:12:31;;;;;;;1.73;1.63;;;;;;;-0.95;100.00;61894.69;6078051;23;20196;-76
2022/01/21 07:14:57;;;;;;;1.05;1.05;;;;;;;-0.92;100.00;61902.25;6077078;23;20212;-76
2022/01/21 07:17:25;;;;;;;2.00;1.90;;;;;;;-0.98;100.00;61898.59;6077070;23;20175;-76
2022/01/21 07:19:52;;;;;;;3.13;2.72;;;;;;;-0.82;100.00;61912.47;6077671;23;20192;-76
2022/01/21 07:22:19;;;;;;;11.70;4.15;;;;;;;-0.79;100.00;61918.56;6078441;23;20176;-76
2022/01/21 07:24:47;;;;;;;4.40;3.15;;;;;;;-0.62;100.00;61937.97;6077685;23;20255;-74
2022/01/21 07:27:14;;;;;;;6.20;2.15;;;;;;;-0.87;100.00;61915.38;6076839;23;20185;-76
2022/01/21 07:29:42;;;;;;;1.92;1.83;;;;;;;-1.03;100.00;61896.50;6076403;23;20244;-76
2022/01/21 07:32:09;;;;;;;7.95;2.63;;;;;;;-1.25;100.00;61872.00;6077019;23;20236;-76
2022/01/21 07:34:36;;;;;;;6.68;2.70;;;;;;;-0.93;100.00;61909.22;6076888;23;20216;-76
2022/01/21 07:37:04;;;;;;;2.95;2.75;;;;;;;-0.83;100.00;61916.47;6077163;23;20172;-76
2022/01/21 07:39:31;;;;;;;2.20;2.08;;;;;;;-0.80;100.00;61920.03;6075974;23;20189;-76
2022/01/21 07:41:59;;;;;;;3.63;2.40;;;;;;;-0.80;100.00;61917.53;6078103;23;20172;-76
2022/01/21 07:44:26;;;;;;;2.20;1.42;;;;;;;-0.67;100.00;61930.34;6080822;23;20249;-77
2022/01/21 07:46:53;;;;;;;6.22;2.35;;;;;;;-0.80;100.00;61912.56;6077099;23;20224;-76
2022/01/21 07:49:20;;;;;;;1.65;1.50;;;;;;;-0.78;100.00;61916.56;6076466;23;20205;-77
2022/01/21 07:51:47;;;;;;;2.23;2.03;;;;;;;-0.77;100.00;61927.59;6074376;23;20717;-75
2022/01/21 07:54:15;;;;;;;1.73;1.67;;;;;;;-0.72;100.00;61925.22;6076171;23;20675;-75
2022/01/21 07:56:42;;;;;;;4.35;2.30;;;;;;;-0.64;100.00;61933.91;6076625;23;20177;-75
2022/01/21 07:59:14;;;;;;;2.53;2.10;;;;;;;-0.63;100.00;61934.94;6079676;23;20426;-75
2022/01/21 08:01:42;;;;;;;5.03;2.50;;;;;;;-0.55;100.00;61948.13;6078318;23;20228;-75
2022/01/21 08:04:10;;;;;;;5.72;1.80;;;;;;;-0.62;100.00;61935.97;6076795;23;20409;-76
2022/01/21 08:06:37;;;;;;;4.57;2.47;;;;;;;-0.66;100.00;61934.38;6078514;23;20239;-76
2022/01/21 08:09:05;;;;;;;2.03;1.92;;;;;;;-0.65;100.00;61929.88;6081455;23;20157;-76
2022/01/21 08:11:32;;;;;;;1.95;1.50;;;;;;;-0.70;100.00;61927.78;6083698;23;20181;-76
2022/01/21 08:13:59;;;;;;;3.17;1.17;;;;;;;-0.68;100.00;61936.81;6079380;23;20212;-76
2022/01/21 08:16:27;;;;;;;3.38;1.60;;;;;;;-0.50;100.00;61953.25;6077116;23;20328;-76
2022/01/21 08:18:54;;;;;;;3.00;2.00;;;;;;;-0.50;100.00;61948.25;6077951;23;20169;-74
2022/01/21 08:21:21;;;;;;;2.67;2.47;;;;;;;-0.44;100.00;61951.41;6077647;23;20187;-75
2022/01/21 08:23:49;;;;;;;3.65;2.20;;;;;;;-0.42;100.00;61958.44;6077353;23;20173;-75
2022/01/21 08:26:18;;;;;;;1.50;1.40;;;;;;;-0.55;100.00;61945.63;6053874;23;20241;-75
2022/01/21 08:28:45;;;;;;;1.73;1.63;;;;;;;-0.40;100.00;61961.00;6046686;23;20249;-76
2022/01/21 08:31:13;;;;;;;2.53;1.48;;;;;;;-0.30;100.00;61970.75;6048704;23;20261;-76
2022/01/21 08:33:41;;;;;;;2.33;2.13;;;;;;;-0.24;100.00;61974.88;6047664;23;20166;-77
2022/01/21 08:36:08;;;;;;;1.48;1.38;;;;;;;-0.26;100.00;61972.84;6048492;23;20215;-76
2022/01/21 08:38:36;;;;;;;1.40;1.40;;;;;;;-0.27;100.00;61971.31;6047819;23;20241;-76
2022/01/21 08:41:03;;;;;;;1.70;1.60;;;;;;;-0.26;100.00;61975.34;6049977;23;20205;-77
2022/01/21 08:43:30;;;;;;;1.85;1.75;;;;;;;-0.33;100.00;61965.16;6050750;23;20178;-76
2022/01/21 08:45:57;;;;;;;1.38;1.38;;;;;;;-0.41;100.00;61957.47;6050119;23;20205;-76
2022/01/21 08:48:24;;;;;;;2.72;1.63;;;;;;;-0.45;100.00;61960.88;6050156;23;20404;-76
2022/01/21 08:50:52;;;;;;;1.70;1.20;;;;;;;-0.29;100.00;61972.28;6049972;23;20194;-76
2022/01/21 08:53:38;;;;;;;1.45;1.25;;;;;;;-0.26;100.00;61969.84;6050503;23;20174;-76
2022/01/21 08:56:07;;;;;;;0.98;0.57;;;;;;;-0.43;97.11;61959.94;6049844;23;20216;-76
2022/01/21 08:58:45;;;;;;;0.95;0.40;;;;;;;-0.50;96.64;61950.25;6053538;23;20221;-76
2022/01/21 09:01:14;;;;;;;1.42;1.25;;;;;;;-0.34;97.24;61969.66;6056637;23;20197;-76
2022/01/21 09:03:42;;;;;;;1.67;1.58;;;;;;;-0.17;96.65;61987.06;6050470;23;20189;-76
2022/01/21 09:06:12;;;;;;;3.47;1.98;;;;;;;-0.15;94.79;61981.09;6049827;23;20209;-77
2022/01/21 09:08:43;;;;;;;1.00;1.00;;;;;;;-0.03;91.26;61998.41;6052093;23;20169;-76
2022/01/21 09:11:10;;;;;;;1.15;1.05;;;;;;;0.06;90.64;62005.13;6050361;23;20431;-77
2022/01/21 09:13:40;;;;;;;0.88;0.88;;;;;;;0.10;89.27;62009.22;6051031;23;20197;-76
2022/01/21 09:16:08;;;;;;;1.40;1.30;;;;;;;0.16;89.27;62017.88;6050878;23;20260;-76
2022/01/21 09:18:45;;;;;;;2.05;1.90;;;;;;;0.47;86.74;62044.63;6053106;23;20222;-76
2022/01/21 09:21:14;;;;;;;1.15;1.08;;;;;;;0.46;81.54;62051.13;6054897;23;20193;-76
2022/01/21 09:23:41;;;;;;;1.60;1.40;;;;;;;0.50;80.25;62049.72;6055585;23;20217;-76
2022/01/21 09:26:08;;;;;;;2.20;1.38;;;;;;;0.65;81.56;62068.13;6076263;23;20233;-75
2022/01/21 09:28:35;;;;;;;1.55;1.30;;;;;;;0.66;80.28;62069.13;6081004;23;20173;-76
2022/01/21 09:31:02;;;;;;;1.63;1.38;;;;;;;0.82;78.39;62082.53;6081439;23;20196;-76
2022/01/21 09:33:29;;;;;;;1.65;1.52;;;;;;;0.92;78.69;62098.31;6082512;23;20231;-78
2022/01/21 09:35:56;;;;;;;3.88;1.88;;;;;;;0.97;77.07;62100.91;6080196;23;20221;-77
2022/01/21 09:38:26;;;;;;;2.38;2.05;;;;;;;1.05;75.52;62108.63;6080426;23;20225;-76
2022/01/21 09:40:53;;;;;;;1.95;1.33;;;;;;;1.18;74.12;62121.94;6078802;23;20212;-75
2022/01/21 09:43:22;;;;;;;3.28;2.38;;;;;;;1.28;71.10;62134.22;6080157;23;20224;-76
2022/01/21 09:45:52;;;;;;;2.83;1.27;;;;;;;1.20;71.51;62124.00;6080019;23;20255;-76
2022/01/21 09:48:23;;;;;;;1.08;0.80;;;;;;;1.22;67.71;62121.03;6080494;23;20230;-77
2022/01/21 09:50:52;;;;;;;4.22;2.55;;;;;;;1.24;67.76;62128.13;6080070;23;20192;-77
2022/01/21 09:53:25;;;;;;;1.10;0.80;;;;;;;1.31;68.38;62137.81;6081013;23;20240;-77
2022/01/21 09:55:56;;;;;;;0.45;0.32;;;;;;;1.22;63.27;62123.56;6079737;23;20240;-77
2022/01/21 09:58:23;;;;;;;0.70;0.60;;;;;;;0.75;62.24;62082.84;6080103;23;20466;-76
2022/01/21 10:00:50;;;;;;;0.60;0.60;;;;;;;1.00;65.00;62101.50;6079089;23;20642;-77
2022/01/21 10:03:19;;;;;;;0.40;0.40;;;;;;;1.01;63.62;62104.50;6078733;23;20184;-77
2022/01/21 10:05:47;;;;;;;1.23;0.77;;;;;;;0.61;72.05;62059.00;6079095;23;20197;-76
2022/01/21 10:08:15;;;;;;;1.75;1.17;;;;;;;0.66;75.22;62071.13;6079179;23;20477;-76
2022/01/21 10:10:44;;;;;;;1.75;1.70;;;;;;;0.79;80.78;62079.44;6078349;23;20249;-76
2022/01/21 10:13:16;;;;;;;6.32;3.65;;;;;;;0.84;93.72;62084.56;6077520;23;20188;-77
2022/01/21 10:15:43;;;;;;;9.15;3.78;;;;;;;1.02;96.84;62108.56;6078399;23;20219;-77
2022/01/21 10:18:14;;;;;;;4.32;2.92;;;;;;;1.26;97.42;62132.16;6080190;23;20197;-76
2022/01/21 10:21:00;;;;;;;4.63;3.13;;;;;;;1.46;96.68;62150.69;6078778;23;20193;-77
2022/01/21 10:23:28;;;;;;;3.10;2.80;;;;;;;0.91;96.74;62094.25;6079133;23;20172;-76
2022/01/21 10:26:02;;;;;;;3.50;3.05;;;;;;;0.19;100.00;62018.44;6079636;23;20207;-77
2022/01/21 10:28:31;;;;;;;4.93;2.28;;;;;;;0.08;100.00;62004.66;6079781;23;20189;-77
2022/01/21 10:31:11;;;;;;;2.60;2.40;;;;;;;0.15;100.00;62016.34;6078500;23;20246;-76
2022/01/21 10:33:41;;;;;;;3.15;2.83;;;;;;;0.19;100.00;62015.94;6079689;23;20213;-77
2022/01/21 10:36:10;;;;;;;3.35;2.25;;;;;;;0.56;100.00;62058.88;6079093;23;20208;-77
2022/01/21 10:38:42;;;;;;;3.05;1.80;;;;;;;0.75;97.83;62075.34;6081005;23;20172;-76
2022/01/21 10:41:12;;;;;;;1.88;1.73;;;;;;;0.91;95.66;62092.28;6079560;23;20192;-77
2022/01/21 10:43:41;;;;;;;1.60;1.50;;;;;;;0.86;93.41;62086.63;6081234;23;20204;-76
2022/01/21 10:46:08;;;;;;;2.20;1.98;;;;;;;1.06;92.04;62110.16;6079970;23;20260;-76
2022/01/21 10:48:57;;;;;;;4.88;2.10;;;;;;;0.70;92.67;62070.22;6079308;23;20172;-76
2022/01/21 10:51:25;;;;;;;2.15;2.05;;;;;;;0.90;92.32;62093.75;6080358;23;20181;-77
2022/01/21 10:53:53;;;;;;;1.98;1.52;;;;;;;1.08;90.07;62112.22;6079919;23;20212;-76
2022/01/21 10:56:20;;;;;;;4.22;2.10;;;;;;;1.16;88.14;62122.91;6079447;23;20205;-77
2022/01/21 10:58:51;;;;;;;2.03;1.92;;;;;;;1.37;83.45;62143.94;6080481;23;20173;-77
2022/01/21 11:01:22;;;;;;;2.67;2.45;;;;;;;1.48;83.01;62149.72;6080314;23;20173;-78
2022/01/21 11:04:01;;;;;;;2.65;2.45;;;;;;;1.38;80.89;62144.47;6080805;23;20177;-78
2022/01/21 11:06:37;;;;;;;4.55;3.10;;;;;;;1.71;76.38;62178.34;6081693;23;20179;-78
2022/01/21 11:09:15;;;;;;;2.17;1.60;;;;;;;0.67;83.29;62072.66;6080556;23;20193;-78
2022/01/21 11:11:42;;;;;;;4.57;1.00;;;;;;;0.94;84.56;62094.81;6080990;23;20184;-78
2022/01/21 11:14:15;;;;;;;1.60;1.25;;;;;;;0.90;81.20;62090.72;6081525;23;20197;-77
2022/01/21 11:16:46;;;;;;;1.10;1.10;;;;;;;1.00;79.28;62106.00;6082299;23;20232;-78
2022/01/21 11:19:16;;;;;;;3.10;1.60;;;;;;;1.10;78.04;62114.25;6081652;23;20536;-77
2022/01/21 11:21:49;;;;;;;1.70;1.45;;;;;;;1.05;74.61;62106.63;6085530;23;20172;-78
2022/01/21 11:24:19;;;;;;;0.90;0.90;;;;;;;0.62;76.71;62067.53;6086189;23;20212;-80
2022/01/21 11:27:06;;;;;;;2.85;0.93;;;;;;;0.90;77.52;62090.72;6083904;23;20173;-78
2022/01/21 11:29:35;;;;;;;1.55;0.98;;;;;;;0.88;75.96;62088.69;6082679;23;20236;-78
2022/01/21 11:32:04;;;;;;;4.68;1.55;;;;;;;0.92;78.96;62093.28;6081183;23;20233;-77
2022/01/21 11:34:32;;;;;;;1.60;1.38;;;;;;;0.93;77.20;62096.31;6078621;23;20196;-79
2022/01/21 11:37:00;;;;;;;3.67;1.98;;;;;;;0.79;75.67;62087.47;6080254;23;20389;-78
2022/01/21 11:39:27;;;;;;;4.32;2.47;;;;;;;0.57;79.03;62059.41;6080767;23;20268;-79
2022/01/21 11:41:57;;;;;;;1.60;1.50;;;;;;;0.65;80.36;62072.59;6080954;23;20570;-78
2022/01/21 11:44:27;;;;;;;1.63;1.08;;;;;;;0.46;77.58;62045.59;6080309;23;20232;-78
2022/01/21 11:47:14;;;;;;;1.80;1.67;;;;;;;0.50;81.12;62050.22;6079573;23;20177;-78
2022/01/21 11:49:43;;;;;;;1.80;1.60;;;;;;;0.61;82.19;62063.47;6078372;23;20214;-77
2022/01/21 11:52:15;;;;;;;2.63;1.27;;;;;;;0.58;78.73;62058.44;6080018;23;20177;-77
2022/01/21 11:54:43;;;;;;;1.40;1.30;;;;;;;0.53;78.37;62055.81;6081891;23;20532;-78
2022/01/21 11:57:14;;;;;;;3.05;1.35;;;;;;;0.39;75.82;62040.94;6081384;23;20271;-78
2022/01/21 11:59:50;;;;;;;1.55;1.45;;;;;;;0.38;74.06;62037.41;6083759;23;20197;-77
2022/01/21 12:02:22;;;;;;;2.15;1.50;;;;;;;0.46;74.52;62046.13;6083212;23;20178;-78
2022/01/21 12:04:50;;;;;;;1.83;1.73;;;;;;;0.58;76.26;62058.44;6084239;23;20216;-78
2022/01/21 12:07:48;;;;;;;7.15;3.28;;;;;;;0.46;74.77;62046.13;6082380;23;20189;-77
2022/01/21 12:10:20;;;;;;;3.15;2.08;;;;;;;0.18;74.97;62021.91;6081393;23;20188;-77
2022/01/21 12:13:07;;;;;;;2.30;2.10;;;;;;;0.20;75.39;62021.47;6082073;23;20181;-78
2022/01/21 12:19:23;;;;;;;2.17;1.95;;;;;;;0.34;74.96;62038.31;6083876;23;20211;-77
2022/01/21 12:21:51;;;;;;;2.13;1.80;;;;;;;0.11;77.68;62010.25;6083150;23;20477;-77
2022/01/21 12:24:51;;;;;;;1.60;1.50;;;;;;;-0.02;79.24;62006.94;6080065;23;20216;-77
2022/01/21 12:27:19;;;;;;;2.08;1.98;;;;;;;-0.25;80.03;61978.88;6080850;23;20185;-76